Time;durP1;ratioP1;P1;durP2;ratioP2;P2;SDS_P1;SDS_P2;PMS_P1;PMS_P2;Temp;Humidity;BMP_temperature;BMP_pressure;BME280_temperature;BME280_humidity;BME280_pressure;Samples;Min_cycle;Max_cycle;Signal;HPM_P1;HPM_P2
2022/08/30 00:01:01;;;;;;;;;;;14.30;99.90;;;;;;4993185;28;19918;-80
2022/08/30 00:01:58;;;;;;;;;;;14.20;99.90;;;;;;5009534;28;19922;-80
2022/08/30 00:04:25;;;;;;;;;;;14.20;99.90;;;;;;4988131;28;19928;-80
2022/08/30 00:06:50;;;;;;;;;;;14.20;99.90;;;;;;4985921;28;20396;-80
2022/08/30 00:09:16;;;;;;;;;;;14.10;99.90;;;;;;4991045;28;19921;-79
2022/08/30 00:11:42;;;;;;;;;;;14.10;99.90;;;;;;4992910;28;20012;-80
2022/08/30 00:14:07;;;;;;;;;;;14.10;99.90;;;;;;5009217;28;19913;-79
2022/08/30 00:16:33;;;;;;;;;;;14.00;99.90;;;;;;5000550;28;19922;-80
2022/08/30 00:18:59;;;;;;;;;;;14.00;99.90;;;;;;4992793;28;19917;-80
2022/08/30 00:21:25;;;;;;;;;;;13.90;99.90;;;;;;4992451;28;19917;-80
2022/08/30 00:23:51;;;;;;;;;;;13.90;99.90;;;;;;4989010;28;19917;-80
2022/08/30 00:26:17;;;;;;;;;;;13.80;99.90;;;;;;4988460;28;19967;-80
2022/08/30 00:28:42;;;;;;;;;;;13.80;99.90;;;;;;4973022;28;19987;-80
2022/08/30 00:31:09;;;;;;;;;;;13.80;99.90;;;;;;4989350;28;19920;-80
2022/08/30 00:33:35;;;;;;;;;;;13.80;99.90;;;;;;5015137;28;19925;-80
2022/08/30 00:36:00;;;;;;;;;;;13.80;99.90;;;;;;5008128;28;19928;-80
2022/08/30 00:38:26;;;;;;;;;;;13.70;99.90;;;;;;4993061;28;20374;-80
2022/08/30 00:40:52;;;;;;;;;;;13.70;99.90;;;;;;5002145;28;19924;-80
2022/08/30 00:43:28;;;;;;;;;;;13.70;99.90;;;;;;5004923;28;20028;-80
2022/08/30 00:45:54;;;;;;;;;;;13.70;99.90;;;;;;4991571;28;20406;-80
2022/08/30 00:48:20;;;;;;;;;;;13.70;99.90;;;;;;5011099;28;19953;-80
2022/08/30 00:50:47;;;;;;;;;;;13.70;99.90;;;;;;5008567;28;20009;-80
2022/08/30 00:53:15;;;;;;;;;;;13.70;99.90;;;;;;5014207;28;20008;-80
2022/08/30 00:55:42;;;;;;;;;;;13.70;99.90;;;;;;5007855;28;19963;-79
2022/08/30 00:58:09;;;;;;;;;;;13.70;99.90;;;;;;5003445;28;19933;-80
2022/08/30 01:00:35;;;;;;;;;;;13.60;99.90;;;;;;4991855;28;19926;-79
2022/08/30 01:03:01;;;;;;;;;;;13.60;99.90;;;;;;4980250;28;19992;-80
2022/08/30 01:05:27;;;;;;;;;;;13.50;99.90;;;;;;4999267;28;20606;-80
2022/08/30 01:07:52;;;;;;;;;;;13.50;99.90;;;;;;5018763;28;20286;-80
2022/08/30 01:10:18;;;;;;;;;;;13.50;99.90;;;;;;5006246;28;20052;-80
2022/08/30 01:12:44;;;;;;;;;;;13.50;99.90;;;;;;5004298;28;20416;-80
2022/08/30 01:15:11;;;;;;;;;;;13.50;99.90;;;;;;5005297;28;20027;-80
2022/08/30 01:17:37;;;;;;;;;;;13.40;99.90;;;;;;5006458;28;19921;-80
2022/08/30 01:20:03;;;;;;;;;;;13.40;99.90;;;;;;4988497;28;19914;-80
2022/08/30 01:22:31;;;;;;;;;;;13.40;99.90;;;;;;5018271;28;19921;-80
2022/08/30 01:24:58;;;;;;;;;;;13.40;99.90;;;;;;5010097;28;20294;-80
2022/08/30 01:27:25;;;;;;;;;;;13.40;99.90;;;;;;5007571;28;19909;-80
2022/08/30 01:29:51;;;;;;;;;;;13.40;99.90;;;;;;4991639;28;19921;-80
2022/08/30 01:32:19;;;;;;;;;;;13.40;99.90;;;;;;5007218;28;19952;-80
2022/08/30 01:34:47;;;;;;;;;;;13.40;99.90;;;;;;5008952;28;19918;-81
2022/08/30 01:37:16;;;;;;;;;;;13.40;99.90;;;;;;5008168;28;20275;-80
2022/08/30 01:39:44;;;;;;;;;;;13.40;99.90;;;;;;5001636;28;20337;-79
2022/08/30 01:42:09;;;;;;;;;;;13.40;99.90;;;;;;5000700;28;19924;-80
2022/08/30 01:44:35;;;;;;;;;;;13.40;99.90;;;;;;5004028;28;19922;-80
2022/08/30 01:47:00;;;;;;;;;;;13.40;99.90;;;;;;4991844;28;19917;-80
2022/08/30 01:49:26;;;;;;;;;;;13.40;99.90;;;;;;4988572;28;19964;-78
2022/08/30 01:51:52;;;;;;;;;;;13.40;99.90;;;;;;4991462;28;19918;-80
2022/08/30 01:54:17;;;;;;;;;;;13.30;99.90;;;;;;4998431;28;19971;-80
2022/08/30 01:56:43;;;;;;;;;;;13.30;99.90;;;;;;4987553;28;19965;-78
2022/08/30 01:59:09;;;;;;;;;;;13.30;99.90;;;;;;4989066;28;19921;-80
2022/08/30 02:01:35;;;;;;;;;;;13.30;99.90;;;;;;5001970;28;19925;-79
2022/08/30 02:04:02;;;;;;;;;;;13.30;99.90;;;;;;5005415;28;19968;-80
2022/08/30 02:06:27;;;;;;;;;;;13.30;99.90;;;;;;5004373;28;20022;-80
2022/08/30 02:08:53;;;;;;;;;;;13.30;99.90;;;;;;4986192;28;19960;-80
2022/08/30 02:11:19;;;;;;;;;;;13.20;99.90;;;;;;4993298;28;20012;-80
2022/08/30 02:13:45;;;;;;;;;;;13.20;99.90;;;;;;5010859;28;19922;-80
2022/08/30 02:16:14;;;;;;;;;;;13.20;99.90;;;;;;5001347;28;19925;-79
2022/08/30 02:18:40;;;;;;;;;;;13.20;99.90;;;;;;5005551;28;20397;-79
2022/08/30 02:21:06;;;;;;;;;;;13.10;99.90;;;;;;5003742;28;19953;-80
2022/08/30 02:23:31;;;;;;;;;;;13.10;99.90;;;;;;5000020;28;20012;-79
2022/08/30 02:25:57;;;;;;;;;;;13.10;99.90;;;;;;5001339;28;20055;-79
2022/08/30 02:28:24;;;;;;;;;;;13.00;99.90;;;;;;4992148;28;20405;-79
2022/08/30 02:30:50;;;;;;;;;;;13.00;99.90;;;;;;5026393;28;19968;-80
2022/08/30 02:33:16;;;;;;;;;;;13.00;99.90;;;;;;4994004;28;19991;-79
2022/08/30 02:35:41;;;;;;;;;;;12.90;99.90;;;;;;5010369;28;19972;-79
2022/08/30 02:38:07;;;;;;;;;;;12.90;99.90;;;;;;4996744;28;19926;-80
2022/08/30 02:40:33;;;;;;;;;;;12.90;99.90;;;;;;5010731;28;20011;-80
2022/08/30 02:42:59;;;;;;;;;;;12.80;99.90;;;;;;5002067;28;20008;-80
2022/08/30 02:45:24;;;;;;;;;;;12.90;99.90;;;;;;5010359;28;19964;-79
2022/08/30 02:47:50;;;;;;;;;;;12.80;99.90;;;;;;5012259;28;19932;-79
2022/08/30 02:50:16;;;;;;;;;;;12.80;99.90;;;;;;5009194;28;19918;-79
2022/08/30 02:52:42;;;;;;;;;;;12.80;99.90;;;;;;4999981;28;19962;-79
2022/08/30 02:55:08;;;;;;;;;;;12.80;99.90;;;;;;4990130;28;20513;-78
2022/08/30 02:57:34;;;;;;;;;;;12.80;99.90;;;;;;4983625;28;19918;-80
2022/08/30 03:00:00;;;;;;;;;;;12.80;99.90;;;;;;5010433;28;19921;-80
2022/08/30 03:02:29;;;;;;;;;;;12.70;99.90;;;;;;4989611;28;19918;-81
2022/08/30 03:04:56;;;;;;;;;;;12.70;99.90;;;;;;4977551;28;19918;-79
2022/08/30 03:07:22;;;;;;;;;;;12.70;99.90;;;;;;5009808;28;19928;-80
2022/08/30 03:09:47;;;;;;;;;;;12.70;99.90;;;;;;4994138;28;19917;-80
2022/08/30 03:12:13;;;;;;;;;;;12.70;99.90;;;;;;5006246;28;20017;-81
2022/08/30 03:14:38;;;;;;;;;;;12.60;99.90;;;;;;4999356;28;19921;-78
2022/08/30 03:17:06;;;;;;;;;;;12.60;99.90;;;;;;4993699;28;19917;-80
2022/08/30 03:19:32;;;;;;;;;;;12.60;99.90;;;;;;4994072;28;20282;-79
2022/08/30 03:21:57;;;;;;;;;;;12.60;99.90;;;;;;4993074;28;19949;-80
2022/08/30 03:24:23;;;;;;;;;;;12.60;99.90;;;;;;5021665;28;19949;-80
2022/08/30 03:26:49;;;;;;;;;;;12.60;99.90;;;;;;5000063;28;20364;-79
2022/08/30 03:29:14;;;;;;;;;;;12.50;99.90;;;;;;5017351;28;19928;-80
2022/08/30 03:31:40;;;;;;;;;;;12.50;99.90;;;;;;5019863;28;19918;-80
2022/08/30 03:34:06;;;;;;;;;;;12.50;99.90;;;;;;5014493;28;20473;-80
2022/08/30 03:36:32;;;;;;;;;;;12.50;99.90;;;;;;4989655;28;20289;-80
2022/08/30 03:38:57;;;;;;;;;;;12.50;99.90;;;;;;5007134;28;19968;-78
2022/08/30 03:41:23;;;;;;;;;;;12.50;99.90;;;;;;5008534;28;19933;-80
2022/08/30 03:43:49;;;;;;;;;;;12.50;99.90;;;;;;4999568;28;19924;-80
2022/08/30 03:46:14;;;;;;;;;;;12.40;99.90;;;;;;5006170;28;19968;-79
2022/08/30 03:48:40;;;;;;;;;;;12.40;99.90;;;;;;4989981;28;19917;-79
2022/08/30 03:51:06;;;;;;;;;;;12.40;99.90;;;;;;4997540;28;20016;-80
2022/08/30 03:53:32;;;;;;;;;;;12.40;99.90;;;;;;5017885;28;19918;-80
2022/08/30 03:55:57;;;;;;;;;;;12.40;99.90;;;;;;5008907;28;19925;-79
2022/08/30 03:58:23;;;;;;;;;;;12.40;99.90;;;;;;5013037;28;19940;-80
2022/08/30 04:00:49;;;;;;;;;;;12.40;99.90;;;;;;4989652;28;19918;-80
2022/08/30 04:03:14;;;;;;;;;;;12.40;99.90;;;;;;4999127;28;19929;-80
2022/08/30 04:05:40;;;;;;;;;;;12.40;99.90;;;;;;4989606;28;20406;-79
2022/08/30 04:08:05;;;;;;;;;;;12.30;99.90;;;;;;5019729;28;19925;-79
2022/08/30 04:10:31;;;;;;;;;;;12.30;99.90;;;;;;4995431;28;19926;-80
2022/08/30 04:12:57;;;;;;;;;;;12.30;99.90;;;;;;5005440;28;19918;-79
2022/08/30 04:15:22;;;;;;;;;;;12.30;99.90;;;;;;5008251;28;20012;-78
2022/08/30 04:17:48;;;;;;;;;;;12.30;99.90;;;;;;5013595;28;19921;-81
2022/08/30 04:20:15;;;;;;;;;;;12.30;99.90;;;;;;4986132;28;20474;-80
2022/08/30 04:22:41;;;;;;;;;;;12.30;99.90;;;;;;5001436;28;19993;-81
2022/08/30 04:25:07;;;;;;;;;;;12.30;99.90;;;;;;4976847;28;19917;-79
2022/08/30 04:27:33;;;;;;;;;;;12.20;99.90;;;;;;4991304;28;19968;-80
2022/08/30 04:29:58;;;;;;;;;;;12.20;99.90;;;;;;5020494;28;19921;-78
2022/08/30 04:32:24;;;;;;;;;;;12.20;99.90;;;;;;5011903;28;19918;-79
2022/08/30 04:34:54;;;;;;;;;;;12.20;99.90;;;;;;5008814;28;20467;-81
2022/08/30 04:37:20;;;;;;;;;;;12.20;99.90;;;;;;5008871;28;19913;-80
2022/08/30 04:39:45;;;;;;;;;;;12.20;99.90;;;;;;5007312;28;19925;-79
2022/08/30 04:42:11;;;;;;;;;;;12.10;99.90;;;;;;4994662;28;19968;-79
2022/08/30 04:44:36;;;;;;;;;;;12.10;99.90;;;;;;5005393;28;19922;-81
2022/08/30 04:47:02;;;;;;;;;;;12.20;99.90;;;;;;5024779;28;19956;-80
2022/08/30 04:49:28;;;;;;;;;;;12.20;99.90;;;;;;4990104;28;20333;-80
2022/08/30 04:51:54;;;;;;;;;;;12.20;99.90;;;;;;5006496;28;19925;-81
2022/08/30 04:54:20;;;;;;;;;;;12.20;99.90;;;;;;5024605;28;19918;-79
2022/08/30 04:56:45;;;;;;;;;;;12.20;99.90;;;;;;5003485;28;20389;-78
2022/08/30 04:59:12;;;;;;;;;;;12.20;99.90;;;;;;5001751;28;20016;-81
2022/08/30 05:01:37;;;;;;;;;;;12.20;99.90;;;;;;5014585;28;20381;-80
2022/08/30 05:04:03;;;;;;;;;;;12.20;99.90;;;;;;4991831;28;19921;-80
2022/08/30 05:06:30;;;;;;;;;;;12.30;99.90;;;;;;5007842;28;19918;-80
2022/08/30 05:08:55;;;;;;;;;;;12.20;99.90;;;;;;5008458;28;19925;-79
2022/08/30 05:11:21;;;;;;;;;;;12.30;99.90;;;;;;4990372;28;19918;-79
2022/08/30 05:13:48;;;;;;;;;;;12.30;99.90;;;;;;5019839;28;20301;-79
2022/08/30 05:16:16;;;;;;;;;;;12.30;99.90;;;;;;4998818;28;20390;-81
2022/08/30 05:18:46;;;;;;;;;;;12.30;99.90;;;;;;5005132;28;20025;-79
2022/08/30 05:21:11;;;;;;;;;;;12.30;99.90;;;;;;4999588;28;19913;-81
2022/08/30 05:23:37;;;;;;;;;;;12.40;99.90;;;;;;5011968;28;19914;-81
2022/08/30 05:26:04;;;;;;;;;;;12.40;99.90;;;;;;5007397;28;19918;-81
2022/08/30 05:28:30;;;;;;;;;;;12.40;99.90;;;;;;4991706;28;20011;-81
2022/08/30 05:30:56;;;;;;;;;;;12.50;99.90;;;;;;5012192;28;20370;-81
2022/08/30 05:33:21;;;;;;;;;;;12.50;99.90;;;;;;4994032;28;19918;-81
2022/08/30 05:35:47;;;;;;;;;;;12.60;99.90;;;;;;4994325;28;20289;-81
2022/08/30 05:38:12;;;;;;;;;;;12.70;99.90;;;;;;5008236;28;19925;-81
2022/08/30 05:40:41;;;;;;;;;;;12.70;99.90;;;;;;5007798;28;19968;-81
2022/08/30 05:43:08;;;;;;;;;;;12.80;99.90;;;;;;5007313;28;19914;-81
2022/08/30 05:45:34;;;;;;;;;;;12.90;99.90;;;;;;5011165;28;19913;-81
2022/08/30 05:48:00;;;;;;;;;;;13.00;99.90;;;;;;5002925;28;20444;-81
2022/08/30 05:50:26;;;;;;;;;;;13.10;99.90;;;;;;4990721;28;19918;-81
2022/08/30 05:52:51;;;;;;;;;;;13.20;99.90;;;;;;5006909;28;19964;-81
2022/08/30 05:55:17;;;;;;;;;;;13.40;99.90;;;;;;5007265;28;19972;-81
2022/08/30 05:57:43;;;;;;;;;;;13.60;99.90;;;;;;5006985;28;19920;-81
2022/08/30 06:00:14;;;;;;;;;;;13.90;99.90;;;;;;5014580;28;19917;-81
2022/08/30 06:02:40;;;;;;;;;;;14.30;99.90;;;;;;4999516;28;19972;-81
2022/08/30 06:05:06;;;;;;;;;;;14.80;99.90;;;;;;5010631;28;20239;-81
2022/08/30 06:07:32;;;;;;;;;;;15.20;99.90;;;;;;5027986;28;19983;-81
2022/08/30 06:09:57;;;;;;;;;;;15.60;99.90;;;;;;4976434;28;20382;-82
2022/08/30 06:12:23;;;;;;;;;;;16.10;99.90;;;;;;5009613;28;20253;-81
2022/08/30 06:14:48;;;;;;;;;;;16.40;99.90;;;;;;5012343;28;20576;-81
2022/08/30 06:17:14;;;;;;;;;;;16.80;99.90;;;;;;5011856;28;19975;-81
2022/08/30 06:19:40;;;;;;;;;;;17.00;99.90;;;;;;5000680;28;20337;-81
2022/08/30 06:22:05;;;;;;;;;;;17.40;99.90;;;;;;5010148;28;19917;-81
2022/08/30 06:24:31;;;;;;;;;;;17.70;99.90;;;;;;5011025;28;20016;-79
2022/08/30 06:26:56;;;;;;;;;;;18.10;99.90;;;;;;4994248;28;19957;-79
2022/08/30 06:29:22;;;;;;;;;;;18.40;99.90;;;;;;5012417;28;19974;-79
2022/08/30 06:31:48;;;;;;;;;;;18.70;99.90;;;;;;5006312;28;19924;-79
2022/08/30 06:34:14;;;;;;;;;;;18.90;99.90;;;;;;5000273;28;20371;-79
2022/08/30 06:36:40;;;;;;;;;;;19.30;99.90;;;;;;5004903;28;19913;-79
2022/08/30 06:39:06;;;;;;;;;;;19.50;99.90;;;;;;5011982;28;19921;-79
2022/08/30 06:41:33;;;;;;;;;;;19.80;99.90;;;;;;5010836;28;19913;-79
2022/08/30 06:44:00;;;;;;;;;;;20.00;99.90;;;;;;5011447;28;19918;-79
2022/08/30 06:46:27;;;;;;;;;;;20.10;99.90;;;;;;5008139;28;19925;-79
2022/08/30 06:48:54;;;;;;;;;;;20.30;99.90;;;;;;5003832;28;19925;-79
2022/08/30 06:51:21;;;;;;;;;;;20.60;99.90;;;;;;5011725;28;19920;-79
2022/08/30 06:53:48;;;;;;;;;;;20.80;99.90;;;;;;5002589;28;19918;-79
2022/08/30 06:56:13;;;;;;;;;;;21.00;99.90;;;;;;5000241;28;19921;-78
2022/08/30 06:58:40;;;;;;;;;;;21.00;99.90;;;;;;5003325;28;20000;-79
2022/08/30 07:01:06;;;;;;;;;;;20.90;99.90;;;;;;5010408;28;19921;-79
2022/08/30 07:03:33;;;;;;;;;;;21.00;99.90;;;;;;5010201;28;20373;-78
2022/08/30 07:05:58;;;;;;;;;;;21.10;99.90;;;;;;4998204;28;19924;-78
2022/08/30 07:08:24;;;;;;;;;;;21.50;99.90;;;;;;4993913;28;19921;-79
2022/08/30 07:10:50;;;;;;;;;;;22.00;99.90;;;;;;5010523;28;20136;-79
2022/08/30 07:13:16;;;;;;;;;;;22.50;99.90;;;;;;5011051;28;19918;-79
2022/08/30 07:15:42;;;;;;;;;;;22.80;99.90;;;;;;5011030;28;20472;-79
2022/08/30 07:21:09;;;;;;;;;;;23.60;98.70;;;;;;4995963;28;19918;-79
2022/08/30 07:23:36;;;;;;;;;;;23.80;97.30;;;;;;5009156;28;19913;-79
2022/08/30 07:26:03;;;;;;;;;;;23.90;95.30;;;;;;5009358;28;19924;-79
2022/08/30 07:28:29;;;;;;;;;;;24.10;93.40;;;;;;5009376;28;19963;-79
2022/08/30 07:30:55;;;;;;;;;;;23.90;93.10;;;;;;5013266;28;20486;-79
2022/08/30 07:33:20;;;;;;;;;;;23.90;92.50;;;;;;5005585;28;19936;-79
2022/08/30 07:35:46;;;;;;;;;;;23.90;91.70;;;;;;5009185;28;20010;-79
2022/08/30 07:38:12;;;;;;;;;;;23.90;92.40;;;;;;5009906;28;19945;-79
2022/08/30 07:40:38;;;;;;;;;;;24.00;92.70;;;;;;5009728;28;20324;-79
2022/08/30 07:43:03;;;;;;;;;;;24.00;92.30;;;;;;4989196;28;19918;-79
2022/08/30 07:45:29;;;;;;;;;;;23.70;92.80;;;;;;4976230;28;19925;-82
2022/08/30 07:47:56;;;;;;;;;;;23.40;93.50;;;;;;5008864;28;19921;-81
2022/08/30 07:50:22;;;;;;;;;;;23.40;93.60;;;;;;5002259;28;19976;-82
2022/08/30 07:52:47;;;;;;;;;;;23.30;92.90;;;;;;5009026;28;20016;-81
2022/08/30 07:55:13;;;;;;;;;;;23.20;92.10;;;;;;5008914;28;19956;-82
2022/08/30 07:57:38;;;;;;;;;;;23.00;93.30;;;;;;5008562;28;19920;-81
2022/08/30 08:00:05;;;;;;;;;;;22.70;93.80;;;;;;5002738;28;19967;-81
2022/08/30 08:02:39;;;;;;;;;;;22.60;93.80;;;;;;4996182;28;20005;-81
2022/08/30 08:05:06;;;;;;;;;;;22.60;94.40;;;;;;5007261;28;19924;-82
2022/08/30 08:07:33;;;;;;;;;;;22.50;93.60;;;;;;5009798;28;19913;-82
2022/08/30 08:09:59;;;;;;;;;;;22.50;95.50;;;;;;5009297;28;19920;-79
2022/08/30 08:12:25;;;;;;;;;;;22.50;94.20;;;;;;5008256;28;20377;-79
2022/08/30 08:14:51;;;;;;;;;;;22.50;94.20;;;;;;4997272;28;20342;-79
2022/08/30 08:17:17;;;;;;;;;;;22.10;93.20;;;;;;5006386;28;20665;-79
2022/08/30 08:19:43;;;;;;;;;;;21.90;93.80;;;;;;5005515;28;20021;-79
2022/08/30 08:22:08;;;;;;;;;;;21.80;94.70;;;;;;5005751;28;19921;-79
2022/08/30 08:24:34;;;;;;;;;;;21.80;95.20;;;;;;5006550;28;20209;-79
2022/08/30 08:27:01;;;;;;;;;;;21.80;94.90;;;;;;5008329;28;19917;-79
2022/08/30 08:29:26;;;;;;;;;;;21.80;94.60;;;;;;5005462;28;19921;-79
2022/08/30 08:31:53;;;;;;;;;;;21.80;96.00;;;;;;4998226;28;19914;-79
2022/08/30 08:34:22;;;;;;;;;;;21.80;96.40;;;;;;4995561;28;19964;-79
2022/08/30 08:36:47;;;;;;;;;;;21.90;96.10;;;;;;5003620;28;20293;-79
2022/08/30 08:39:13;;;;;;;;;;;21.80;95.70;;;;;;4975969;28;19918;-78
2022/08/30 08:41:48;;;;;;;;;;;21.80;96.30;;;;;;5008366;28;19980;-78
2022/08/30 08:44:32;;;;;;;;;;;21.80;96.30;;;;;;5000149;28;19944;-78
2022/08/30 08:47:07;;;;;;;;;;;21.80;98.20;;;;;;5008296;28;19951;-78
2022/08/30 08:49:34;;;;;;;;;;;21.80;97.50;;;;;;5005875;28;19918;-81
2022/08/30 08:54:55;;;;;;;;;;;21.60;96.00;;;;;;5002219;28;20559;-81
2022/08/30 08:57:20;;;;;;;;;;;21.60;97.20;;;;;;4983286;28;19996;-81
2022/08/30 08:59:47;;;;;;;;;;;21.60;98.10;;;;;;5009206;28;20008;-81
2022/08/30 09:02:24;;;;;;;;;;;21.60;98.20;;;;;;5007373;28;19918;-82
2022/08/30 09:04:52;;;;;;;;;;;21.60;97.10;;;;;;5013294;28;20444;-81
2022/08/30 09:07:21;;;;;;;;;;;21.50;97.30;;;;;;5007877;28;19918;-81
2022/08/30 09:09:46;;;;;;;;;;;21.40;98.20;;;;;;5009333;28;19918;-82
2022/08/30 09:12:12;;;;;;;;;;;21.40;98.90;;;;;;4987717;28;19918;-81
2022/08/30 09:14:39;;;;;;;;;;;21.30;98.40;;;;;;5017022;28;19924;-81
2022/08/30 09:17:06;;;;;;;;;;;21.30;98.60;;;;;;5007958;28;20059;-80
2022/08/30 09:19:34;;;;;;;;;;;21.30;97.80;;;;;;5016317;28;19921;-81
2022/08/30 09:22:02;;;;;;;;;;;21.30;98.50;;;;;;4995954;28;20289;-78
2022/08/30 09:24:35;;;;;;;;;;;21.30;99.20;;;;;;5008349;28;20056;-80
2022/08/30 09:27:21;;;;;;;;;;;21.40;99.10;;;;;;5003829;28;19914;-80
2022/08/30 09:29:58;;;;;;;;;;;21.40;99.20;;;;;;5011802;28;19917;-81
2022/08/30 09:32:25;;;;;;;;;;;21.50;99.10;;;;;;5007342;28;20044;-81
2022/08/30 09:34:50;;;;;;;;;;;21.50;99.70;;;;;;5006513;28;19918;-81
2022/08/30 09:37:24;;;;;;;;;;;21.50;98.50;;;;;;4989247;28;19928;-80
2022/08/30 09:39:50;;;;;;;;;;;21.50;99.40;;;;;;5008795;28;20193;-81
2022/08/30 09:42:24;;;;;;;;;;;21.50;97.80;;;;;;5005670;28;19925;-80
2022/08/30 09:44:51;;;;;;;;;;;21.50;98.30;;;;;;5014883;28;19922;-80
2022/08/30 09:47:18;;;;;;;;;;;21.60;99.80;;;;;;5025994;28;20356;-81
2022/08/30 09:49:44;;;;;;;;;;;21.60;98.60;;;;;;4993289;28;20346;-82
2022/08/30 09:52:33;;;;;;;;;;;21.60;98.20;;;;;;4973323;28;19925;-80
2022/08/30 09:55:08;;;;;;;;;;;21.60;99.40;;;;;;4998519;28;19961;-80
2022/08/30 09:57:43;;;;;;;;;;;21.70;99.80;;;;;;4996167;28;19924;-81
2022/08/30 10:00:15;;;;;;;;;;;21.80;99.50;;;;;;4971794;28;19914;-80
2022/08/30 10:02:56;;;;;;;;;;;21.90;97.20;;;;;;4987623;28;19937;-80
2022/08/30 10:05:31;;;;;;;;;;;22.00;97.70;;;;;;4983393;28;20362;-80
2022/08/30 10:08:14;;;;;;;;;;;22.00;99.10;;;;;;5003149;28;20052;-81
2022/08/30 10:10:46;;;;;;;;;;;22.10;98.30;;;;;;4997327;28;19944;-81
2022/08/30 10:13:23;;;;;;;;;;;22.10;97.30;;;;;;4985785;28;19921;-80
2022/08/30 10:15:57;;;;;;;;;;;22.10;97.10;;;;;;4988836;28;19929;-79
2022/08/30 10:18:25;;;;;;;;;;;22.20;97.70;;;;;;4998776;28;19914;-80
2022/08/30 10:20:54;;;;;;;;;;;22.20;98.30;;;;;;4998648;28;19968;-80
2022/08/30 10:23:21;;;;;;;;;;;22.20;97.00;;;;;;4979251;28;19914;-79
2022/08/30 10:25:50;;;;;;;;;;;22.30;96.70;;;;;;4987253;28;20490;-81
2022/08/30 10:28:18;;;;;;;;;;;22.40;96.60;;;;;;4997246;28;20397;-81
2022/08/30 10:30:48;;;;;;;;;;;22.50;95.30;;;;;;5012019;28;20048;-81
2022/08/30 10:33:17;;;;;;;;;;;22.50;95.10;;;;;;4990173;28;20203;-81
2022/08/30 10:35:45;;;;;;;;;;;22.50;96.70;;;;;;4993144;28;19910;-80
2022/08/30 10:38:29;;;;;;;;;;;22.60;97.10;;;;;;4996898;28;19952;-80
2022/08/30 10:41:14;;;;;;;;;;;22.70;95.90;;;;;;4997950;28;20293;-80
2022/08/30 10:43:58;;;;;;;;;;;22.80;92.20;;;;;;4999928;28;19917;-81
2022/08/30 10:46:43;;;;;;;;;;;22.70;92.80;;;;;;4997432;28;19957;-81
2022/08/30 10:49:14;;;;;;;;;;;22.70;94.00;;;;;;4975648;28;20008;-81
2022/08/30 10:51:54;;;;;;;;;;;22.70;93.40;;;;;;5003681;28;20442;-81
2022/08/30 10:54:46;;;;;;;;;;;22.70;93.20;;;;;;5002788;28;19918;-80
2022/08/30 10:57:13;;;;;;;;;;;22.80;92.50;;;;;;4989739;28;19914;-81
2022/08/30 10:59:44;;;;;;;;;;;22.80;94.20;;;;;;5004156;28;19953;-79
2022/08/30 11:02:09;;;;;;;;;;;22.90;93.60;;;;;;5003904;28;19914;-80
2022/08/30 11:04:44;;;;;;;;;;;23.00;92.30;;;;;;5007707;28;19917;-80
2022/08/30 11:07:13;;;;;;;;;;;23.10;92.40;;;;;;5007972;28;19917;-80
2022/08/30 11:09:57;;;;;;;;;;;23.10;87.50;;;;;;5011092;28;20309;-80
2022/08/30 11:12:27;;;;;;;;;;;23.10;90.70;;;;;;5023330;28;19913;-78
2022/08/30 11:14:54;;;;;;;;;;;23.10;90.20;;;;;;5015348;28;20055;-81
2022/08/30 11:17:22;;;;;;;;;;;23.10;83.60;;;;;;4993105;28;19921;-79
2022/08/30 11:19:48;;;;;;;;;;;23.20;84.40;;;;;;5003175;28;20378;-80
2022/08/30 11:22:15;;;;;;;;;;;23.30;86.20;;;;;;5002771;28;19914;-79
2022/08/30 11:25:01;;;;;;;;;;;23.30;83.40;;;;;;4989033;28;19941;-80
2022/08/30 11:27:44;;;;;;;;;;;23.30;82.00;;;;;;5003570;28;19940;-79
2022/08/30 11:30:22;;;;;;;;;;;23.30;81.50;;;;;;4974386;28;19922;-80
2022/08/30 11:33:23;;;;;;;;;;;23.30;83.10;;;;;;5018161;28;19914;-80
2022/08/30 11:35:51;;;;;;;;;;;23.40;87.70;;;;;;4989343;28;19922;-80
2022/08/30 11:38:16;;;;;;;;;;;23.50;84.20;;;;;;5016166;28;20013;-80
2022/08/30 11:40:43;;;;;;;;;;;23.60;82.00;;;;;;5009793;28;20000;-80
2022/08/30 11:43:27;;;;;;;;;;;23.70;81.20;;;;;;5009042;28;19914;-80
2022/08/30 11:46:12;;;;;;;;;;;23.80;84.00;;;;;;4998095;28;19920;-80
2022/08/30 11:48:40;;;;;;;;;;;23.80;84.30;;;;;;5004191;28;20623;-81
2022/08/30 11:51:09;;;;;;;;;;;23.80;86.10;;;;;;4999001;28;19921;-81
2022/08/30 11:53:35;;;;;;;;;;;23.90;83.20;;;;;;5014829;28;19914;-80
2022/08/30 11:56:00;;;;;;;;;;;24.00;83.50;;;;;;5008280;28;19914;-80
2022/08/30 11:58:32;;;;;;;;;;;24.00;85.00;;;;;;5005468;28;19975;-80
2022/08/30 12:01:31;;;;;;;;;;;24.00;81.40;;;;;;4976914;28;19922;-81
2022/08/30 12:04:00;;;;;;;;;;;24.10;82.30;;;;;;5004634;28;19913;-81
2022/08/30 12:06:41;;;;;;;;;;;24.20;82.10;;;;;;4992240;28;19964;-81
2022/08/30 12:09:07;;;;;;;;;;;24.20;82.60;;;;;;4997338;28;19917;-80
2022/08/30 12:11:33;;;;;;;;;;;24.40;83.70;;;;;;5003290;28;19921;-79
2022/08/30 12:13:59;;;;;;;;;;;24.60;82.70;;;;;;5008778;28;19920;-78
2022/08/30 12:19:32;;;;;;;;;;;25.00;80.20;;;;;;4990955;28;20290;-78
2022/08/30 12:21:59;;;;;;;;;;;25.00;78.10;;;;;;5003349;28;19921;-80
2022/08/30 12:24:27;;;;;;;;;;;25.10;77.00;;;;;;5008201;28;19917;-81
2022/08/30 12:26:53;;;;;;;;;;;25.20;75.30;;;;;;5008644;28;19960;-80
2022/08/30 12:29:20;;;;;;;;;;;25.30;76.80;;;;;;5005478;28;19957;-81
2022/08/30 12:31:48;;;;;;;;;;;25.40;76.40;;;;;;4998815;28;20950;-80
2022/08/30 12:34:25;;;;;;;;;;;25.60;77.30;;;;;;4993579;28;19913;-80
2022/08/30 12:36:51;;;;;;;;;;;25.60;76.50;;;;;;5006101;28;19924;-80
2022/08/30 12:39:19;;;;;;;;;;;25.70;74.90;;;;;;4998218;28;19921;-80
2022/08/30 12:41:45;;;;;;;;;;;25.70;73.30;;;;;;5019096;28;19913;-77
2022/08/30 12:44:15;;;;;;;;;;;25.70;74.10;;;;;;5028339;23;19995;-82
2022/08/30 12:46:44;;;;;;;;;;;25.80;69.50;;;;;;5031558;28;19975;-82
2022/08/30 12:49:12;;;;;;;;;;;25.70;72.30;;;;;;5039283;28;19929;-84
2022/08/30 12:51:39;;;;;;;;;;;25.70;73.20;;;;;;5036208;28;19917;-83
2022/08/30 12:54:28;;;;;;;;;;;25.70;68.10;;;;;;5046744;28;20449;-81
2022/08/30 12:56:56;;;;;;;;;;;25.50;70.30;;;;;;5023241;28;19966;-81
2022/08/30 12:59:41;;;;;;;;;;;25.50;73.40;;;;;;5006862;28;19927;-81
2022/08/30 13:02:10;;;;;;;;;;;25.50;72.80;;;;;;5025297;28;19917;-82
2022/08/30 13:04:37;;;;;;;;;;;25.60;76.30;;;;;;5030742;28;19979;-81
2022/08/30 13:07:03;;;;;;;;;;;25.80;76.50;;;;;;5039358;28;19992;-81
2022/08/30 13:09:30;;;;;;;;;;;25.80;72.30;;;;;;4995539;28;19959;-83
2022/08/30 13:11:57;;;;;;;;;;;25.80;71.70;;;;;;5017012;28;19917;-81
2022/08/30 13:14:23;;;;;;;;;;;25.80;76.30;;;;;;5027872;28;19925;-81
2022/08/30 13:16:49;;;;;;;;;;;25.80;76.20;;;;;;5032434;28;19909;-80
2022/08/30 13:19:17;;;;;;;;;;;25.80;74.00;;;;;;5006377;28;19918;-82
2022/08/30 13:21:49;;;;;;;;;;;25.70;74.50;;;;;;5026317;28;19919;-81
2022/08/30 13:24:14;;;;;;;;;;;25.60;72.50;;;;;;5020485;28;19921;-83
2022/08/30 13:26:41;;;;;;;;;;;25.50;69.80;;;;;;5024280;28;19913;-82
2022/08/30 13:29:12;;;;;;;;;;;25.40;72.90;;;;;;5027157;28;20003;-83
2022/08/30 13:31:38;;;;;;;;;;;25.30;70.50;;;;;;5031306;28;19912;-81
2022/08/30 13:34:04;;;;;;;;;;;25.20;68.60;;;;;;5013559;28;19925;-81
2022/08/30 13:36:30;;;;;;;;;;;25.20;70.40;;;;;;5020595;28;19953;-80
2022/08/30 13:38:57;;;;;;;;;;;25.10;70.60;;;;;;5019430;28;20080;-81
2022/08/30 13:41:23;;;;;;;;;;;25.10;68.00;;;;;;5021197;28;19920;-81
2022/08/30 13:43:49;;;;;;;;;;;25.00;68.60;;;;;;5012714;28;19921;-80
2022/08/30 13:46:15;;;;;;;;;;;24.90;69.50;;;;;;5017793;28;20020;-80
2022/08/30 13:48:40;;;;;;;;;;;24.90;70.60;;;;;;5026415;28;19936;-80
2022/08/30 13:51:06;;;;;;;;;;;24.90;71.60;;;;;;5024835;28;20491;-80
2022/08/30 13:53:32;;;;;;;;;;;24.90;68.60;;;;;;5034916;28;19918;-81
2022/08/30 13:55:58;;;;;;;;;;;25.00;70.90;;;;;;5019651;28;20408;-79
2022/08/30 13:58:24;;;;;;;;;;;25.00;71.20;;;;;;5030378;28;19913;-81
2022/08/30 14:00:50;;;;;;;;;;;25.00;69.40;;;;;;5002205;28;19917;-80
2022/08/30 14:03:15;;;;;;;;;;;24.90;70.10;;;;;;5014460;28;19913;-81
2022/08/30 14:05:42;;;;;;;;;;;24.80;70.80;;;;;;5005711;28;20006;-80
2022/08/30 14:08:08;;;;;;;;;;;24.70;71.50;;;;;;5004220;28;19925;-81
2022/08/30 14:10:34;;;;;;;;;;;24.60;71.20;;;;;;5019189;28;20004;-83
2022/08/30 14:13:00;;;;;;;;;;;24.50;71.40;;;;;;5007769;28;20037;-81
2022/08/30 14:15:26;;;;;;;;;;;24.50;72.90;;;;;;4997081;28;19964;-82
2022/08/30 14:17:51;;;;;;;;;;;24.50;71.40;;;;;;5019274;28;19921;-82
2022/08/30 14:20:17;;;;;;;;;;;24.50;69.70;;;;;;5023079;28;19920;-80
2022/08/30 14:22:43;;;;;;;;;;;24.60;71.40;;;;;;5015879;28;19921;-80
2022/08/30 14:25:09;;;;;;;;;;;24.60;71.40;;;;;;5005555;28;19939;-81
2022/08/30 14:27:34;;;;;;;;;;;24.60;73.00;;;;;;5020852;28;19913;-80